sensor_id;sensor_type;location;lat;lon;timestamp;pressure;altitude;pressure_sealevel;temperature;humidity
11605;BME280;5858;43.076;25.626;2024-03-22T00:00:12;99535.66;;;7.33;79.29
11605;BME280;5858;43.076;25.626;2024-03-22T00:02:37;99603.97;;;7.76;78.40
11605;BME280;5858;43.076;25.626;2024-03-22T00:05:04;99613.19;;;7.89;79.18
11605;BME280;5858;43.076;25.626;2024-03-22T00:07:30;99619.41;;;7.98;78.74
11605;BME280;5858;43.076;25.626;2024-03-22T00:09:57;99611.69;;;7.87;79.52
11605;BME280;5858;43.076;25.626;2024-03-22T00:12:23;99607.88;;;7.89;80.06
11605;BME280;5858;43.076;25.626;2024-03-22T00:14:50;99613.28;;;8.06;79.15
11605;BME280;5858;43.076;25.626;2024-03-22T00:17:18;99600.22;;;7.95;79.19
11605;BME280;5858;43.076;25.626;2024-03-22T00:19:45;99593.75;;;7.97;79.02
11605;BME280;5858;43.076;25.626;2024-03-22T00:22:10;99583.22;;;7.87;78.53
11605;BME280;5858;43.076;25.626;2024-03-22T00:24:37;99574.69;;;7.76;78.86
11605;BME280;5858;43.076;25.626;2024-03-22T00:27:03;99529.91;;;7.45;78.67
11605;BME280;5858;43.076;25.626;2024-03-22T00:29:30;99605.00;;;7.83;78.88
11605;BME280;5858;43.076;25.626;2024-03-22T00:31:56;99584.13;;;7.44;80.25
11605;BME280;5858;43.076;25.626;2024-03-22T00:34:24;99606.72;;;7.58;81.32
11605;BME280;5858;43.076;25.626;2024-03-22T00:36:50;99559.28;;;7.10;83.08
11605;BME280;5858;43.076;25.626;2024-03-22T00:39:17;99547.72;;;7.01;82.52
11605;BME280;5858;43.076;25.626;2024-03-22T00:41:43;99610.91;;;7.17;83.35
11605;BME280;5858;43.076;25.626;2024-03-22T00:44:10;99621.00;;;6.95;82.88
11605;BME280;5858;43.076;25.626;2024-03-22T00:46:35;99620.25;;;6.85;85.56
11605;BME280;5858;43.076;25.626;2024-03-22T00:49:02;99622.69;;;6.79;87.09
11605;BME280;5858;43.076;25.626;2024-03-22T00:51:29;99625.19;;;6.80;87.26
11605;BME280;5858;43.076;25.626;2024-03-22T00:53:56;99637.81;;;6.78;80.00
11605;BME280;5858;43.076;25.626;2024-03-22T00:56:22;99636.34;;;6.66;81.67
11605;BME280;5858;43.076;25.626;2024-03-22T00:58:49;99559.38;;;6.29;87.13
11605;BME280;5858;43.076;25.626;2024-03-22T01:01:15;99598.19;;;6.57;87.40
11605;BME280;5858;43.076;25.626;2024-03-22T01:03:42;99612.84;;;6.61;88.44
11605;BME280;5858;43.076;25.626;2024-03-22T01:06:07;99621.94;;;6.69;88.18
11605;BME280;5858;43.076;25.626;2024-03-22T01:08:36;99544.34;;;5.92;89.44
11605;BME280;5858;43.076;25.626;2024-03-22T01:11:02;99592.16;;;6.20;87.50
11605;BME280;5858;43.076;25.626;2024-03-22T01:13:28;99517.50;;;5.58;89.08
11605;BME280;5858;43.076;25.626;2024-03-22T01:15:55;99544.22;;;5.84;85.16
11605;BME280;5858;43.076;25.626;2024-03-22T01:18:22;99580.78;;;6.00;85.88
11605;BME280;5858;43.076;25.626;2024-03-22T01:20:48;99613.81;;;6.25;86.75
11605;BME280;5858;43.076;25.626;2024-03-22T01:23:15;99599.63;;;6.34;85.82
11605;BME280;5858;43.076;25.626;2024-03-22T01:25:42;99614.44;;;6.37;86.52
11605;BME280;5858;43.076;25.626;2024-03-22T01:28:09;99584.13;;;6.29;86.15
11605;BME280;5858;43.076;25.626;2024-03-22T01:30:35;99593.44;;;6.16;88.41
11605;BME280;5858;43.076;25.626;2024-03-22T01:33:02;99609.34;;;6.43;86.96
11605;BME280;5858;43.076;25.626;2024-03-22T01:35:28;99543.69;;;6.08;85.58
11605;BME280;5858;43.076;25.626;2024-03-22T01:37:55;99626.81;;;6.46;87.13
11605;BME280;5858;43.076;25.626;2024-03-22T01:40:20;99608.09;;;6.20;87.20
11605;BME280;5858;43.076;25.626;2024-03-22T01:42:53;99528.28;;;5.84;86.31
11605;BME280;5858;43.076;25.626;2024-03-22T01:45:18;99602.63;;;6.21;86.46
11605;BME280;5858;43.076;25.626;2024-03-22T01:47:46;99594.28;;;6.16;86.61
11605;BME280;5858;43.076;25.626;2024-03-22T01:50:11;99601.41;;;6.16;86.88
11605;BME280;5858;43.076;25.626;2024-03-22T01:52:39;99621.66;;;6.44;85.85
11605;BME280;5858;43.076;25.626;2024-03-22T01:55:07;99617.47;;;6.42;86.89
11605;BME280;5858;43.076;25.626;2024-03-22T01:57:34;99548.50;;;5.58;89.23
11605;BME280;5858;43.076;25.626;2024-03-22T02:00:03;99595.66;;;5.83;90.50
11605;BME280;5858;43.076;25.626;2024-03-22T02:02:31;99597.84;;;5.88;89.58
11605;BME280;5858;43.076;25.626;2024-03-22T02:04:57;99605.28;;;5.94;88.93
11605;BME280;5858;43.076;25.626;2024-03-22T02:07:24;99620.84;;;6.16;89.01
11605;BME280;5858;43.076;25.626;2024-03-22T02:09:50;99625.88;;;6.10;89.24
11605;BME280;5858;43.076;25.626;2024-03-22T02:12:17;99630.25;;;6.01;89.46
11605;BME280;5858;43.076;25.626;2024-03-22T02:14:43;99630.31;;;5.91;90.83
11605;BME280;5858;43.076;25.626;2024-03-22T02:17:11;99634.25;;;5.78;91.00
11605;BME280;5858;43.076;25.626;2024-03-22T02:19:37;99540.09;;;5.16;90.40
11605;BME280;5858;43.076;25.626;2024-03-22T02:22:04;99588.34;;;5.48;90.49
11605;BME280;5858;43.076;25.626;2024-03-22T02:24:31;99626.16;;;5.69;90.08
11605;BME280;5858;43.076;25.626;2024-03-22T02:26:58;99630.63;;;5.69;90.07
11605;BME280;5858;43.076;25.626;2024-03-22T02:29:24;99526.31;;;5.02;89.96
11605;BME280;5858;43.076;25.626;2024-03-22T02:31:50;99606.63;;;5.51;89.50
11605;BME280;5858;43.076;25.626;2024-03-22T02:34:16;99618.06;;;5.71;88.60
11605;BME280;5858;43.076;25.626;2024-03-22T02:36:43;99589.34;;;5.37;88.67
11605;BME280;5858;43.076;25.626;2024-03-22T02:39:09;99498.31;;;4.90;88.14
11605;BME280;5858;43.076;25.626;2024-03-22T02:41:37;99566.59;;;5.35;87.81
11605;BME280;5858;43.076;25.626;2024-03-22T02:44:03;99605.66;;;5.52;87.30
11605;BME280;5858;43.076;25.626;2024-03-22T02:46:30;99502.47;;;4.93;86.87
11605;BME280;5858;43.076;25.626;2024-03-22T02:48:56;99543.03;;;5.13;87.27
11605;BME280;5858;43.076;25.626;2024-03-22T02:51:23;99641.66;;;5.74;86.66
11605;BME280;5858;43.076;25.626;2024-03-22T02:53:49;99635.25;;;5.57;86.61
11605;BME280;5858;43.076;25.626;2024-03-22T02:56:16;99557.84;;;5.25;85.15
11605;BME280;5858;43.076;25.626;2024-03-22T02:58:43;99647.25;;;5.71;85.49
11605;BME280;5858;43.076;25.626;2024-03-22T03:01:10;99555.88;;;5.17;85.63
11605;BME280;5858;43.076;25.626;2024-03-22T03:03:36;99640.81;;;5.64;85.64
11605;BME280;5858;43.076;25.626;2024-03-22T03:06:03;99531.94;;;4.90;84.50
11605;BME280;5858;43.076;25.626;2024-03-22T03:08:29;99654.38;;;5.61;84.95
11605;BME280;5858;43.076;25.626;2024-03-22T03:10:56;99648.66;;;5.56;84.80
11605;BME280;5858;43.076;25.626;2024-03-22T03:13:22;99633.78;;;5.35;85.79
11605;BME280;5858;43.076;25.626;2024-03-22T03:15:50;99646.31;;;5.43;85.16
11605;BME280;5858;43.076;25.626;2024-03-22T03:18:16;99585.50;;;4.93;85.64
11605;BME280;5858;43.076;25.626;2024-03-22T03:20:43;99642.88;;;5.04;86.41
11605;BME280;5858;43.076;25.626;2024-03-22T03:23:09;99668.28;;;5.26;85.63
11605;BME280;5858;43.076;25.626;2024-03-22T03:25:36;99602.97;;;4.96;85.28
11605;BME280;5858;43.076;25.626;2024-03-22T03:28:02;99669.25;;;5.25;85.23
11605;BME280;5858;43.076;25.626;2024-03-22T03:30:28;99670.78;;;5.18;85.41
11605;BME280;5858;43.076;25.626;2024-03-22T03:32:56;99667.16;;;5.09;86.34
11605;BME280;5858;43.076;25.626;2024-03-22T03:35:22;99510.84;;;4.11;86.07
11605;BME280;5858;43.076;25.626;2024-03-22T03:37:49;99667.28;;;4.98;86.79
11605;BME280;5858;43.076;25.626;2024-03-22T03:40:16;99597.91;;;4.54;87.06
11605;BME280;5858;43.076;25.626;2024-03-22T03:42:42;99541.78;;;4.01;88.15
11605;BME280;5858;43.076;25.626;2024-03-22T03:45:09;99655.41;;;4.73;89.12
11605;BME280;5858;43.076;25.626;2024-03-22T03:47:34;99678.31;;;4.93;88.58
11605;BME280;5858;43.076;25.626;2024-03-22T03:50:03;99623.16;;;4.58;88.46
11605;BME280;5858;43.076;25.626;2024-03-22T03:52:29;99652.63;;;4.74;87.86
11605;BME280;5858;43.076;25.626;2024-03-22T03:54:56;99676.78;;;4.91;87.84
11605;BME280;5858;43.076;25.626;2024-03-22T03:57:22;99616.19;;;4.57;87.66
11605;BME280;5858;43.076;25.626;2024-03-22T03:59:50;99687.94;;;5.04;87.30
11605;BME280;5858;43.076;25.626;2024-03-22T04:02:16;99697.72;;;5.03;88.48
11605;BME280;5858;43.076;25.626;2024-03-22T04:04:43;99664.34;;;4.91;88.34
11605;BME280;5858;43.076;25.626;2024-03-22T04:07:10;99692.56;;;5.12;87.34
11605;BME280;5858;43.076;25.626;2024-03-22T04:09:36;99678.44;;;4.82;88.33
11605;BME280;5858;43.076;25.626;2024-03-22T04:12:03;99618.41;;;4.62;88.58
11605;BME280;5858;43.076;25.626;2024-03-22T04:14:31;99654.28;;;4.66;88.79
11605;BME280;5858;43.076;25.626;2024-03-22T04:16:56;99659.78;;;4.34;91.96
11605;BME280;5858;43.076;25.626;2024-03-22T04:19:23;99685.88;;;4.08;94.77
11605;BME280;5858;43.076;25.626;2024-03-22T04:21:51;99708.34;;;4.14;94.54
11605;BME280;5858;43.076;25.626;2024-03-22T04:24:20;99708.25;;;4.25;93.28
11605;BME280;5858;43.076;25.626;2024-03-22T04:26:51;99712.41;;;4.18;94.60
11605;BME280;5858;43.076;25.626;2024-03-22T04:29:18;99643.63;;;3.97;93.18
11605;BME280;5858;43.076;25.626;2024-03-22T04:31:44;99714.00;;;4.30;92.94
11605;BME280;5858;43.076;25.626;2024-03-22T04:34:10;99720.22;;;4.50;91.84
11605;BME280;5858;43.076;25.626;2024-03-22T04:36:36;99629.84;;;4.03;91.53
11605;BME280;5858;43.076;25.626;2024-03-22T04:39:03;99681.56;;;4.37;91.64
11605;BME280;5858;43.076;25.626;2024-03-22T04:41:31;99664.34;;;4.22;91.24
11605;BME280;5858;43.076;25.626;2024-03-22T04:43:58;99688.81;;;4.45;90.61
11605;BME280;5858;43.076;25.626;2024-03-22T04:46:25;99654.50;;;4.34;90.08
11605;BME280;5858;43.076;25.626;2024-03-22T04:48:52;99726.84;;;4.74;89.91
11605;BME280;5858;43.076;25.626;2024-03-22T04:51:17;99624.84;;;4.09;89.12
11605;BME280;5858;43.076;25.626;2024-03-22T04:53:44;99572.13;;;3.87;89.50
11605;BME280;5858;43.076;25.626;2024-03-22T04:56:10;99688.25;;;4.41;91.11
11605;BME280;5858;43.076;25.626;2024-03-22T04:58:38;99728.41;;;4.37;94.46
11605;BME280;5858;43.076;25.626;2024-03-22T05:01:04;99677.97;;;4.18;92.89
11605;BME280;5858;43.076;25.626;2024-03-22T05:03:31;99724.00;;;4.57;92.44
11605;BME280;5858;43.076;25.626;2024-03-22T05:05:57;99631.53;;;4.04;92.78
11605;BME280;5858;43.076;25.626;2024-03-22T05:08:24;99652.25;;;4.29;90.93
11605;BME280;5858;43.076;25.626;2024-03-22T05:10:50;99710.59;;;4.58;90.94
11605;BME280;5858;43.076;25.626;2024-03-22T05:13:16;99684.75;;;4.31;91.81
11605;BME280;5858;43.076;25.626;2024-03-22T05:15:44;99647.50;;;3.93;92.28
11605;BME280;5858;43.076;25.626;2024-03-22T05:18:11;99732.75;;;4.48;92.16
11605;BME280;5858;43.076;25.626;2024-03-22T05:20:37;99657.06;;;4.15;91.77
11605;BME280;5858;43.076;25.626;2024-03-22T05:23:03;99714.59;;;4.83;90.41
11605;BME280;5858;43.076;25.626;2024-03-22T05:25:29;99663.06;;;4.66;88.75
11605;BME280;5858;43.076;25.626;2024-03-22T05:27:56;99668.41;;;4.76;87.67
11605;BME280;5858;43.076;25.626;2024-03-22T05:30:22;99721.06;;;5.29;86.57
11605;BME280;5858;43.076;25.626;2024-03-22T05:32:50;99689.47;;;5.45;85.44
11605;BME280;5858;43.076;25.626;2024-03-22T05:35:16;99741.53;;;6.04;84.49
11605;BME280;5858;43.076;25.626;2024-03-22T05:37:43;99709.00;;;5.92;82.85
11605;BME280;5858;43.076;25.626;2024-03-22T05:40:10;99761.91;;;6.13;82.89
11605;BME280;5858;43.076;25.626;2024-03-22T05:42:37;99729.16;;;6.32;80.83
11605;BME280;5858;43.076;25.626;2024-03-22T05:45:04;99766.78;;;6.65;79.83
11605;BME280;5858;43.076;25.626;2024-03-22T05:47:31;99682.88;;;6.25;79.21
11605;BME280;5858;43.076;25.626;2024-03-22T05:50:01;99767.94;;;7.07;78.80
11605;BME280;5858;43.076;25.626;2024-03-22T05:52:28;99756.19;;;7.28;77.26
11605;BME280;5858;43.076;25.626;2024-03-22T05:54:53;99767.75;;;7.72;75.40
11605;BME280;5858;43.076;25.626;2024-03-22T05:57:21;99766.47;;;8.02;71.73
11605;BME280;5858;43.076;25.626;2024-03-22T05:59:47;99772.94;;;8.43;69.87
11605;BME280;5858;43.076;25.626;2024-03-22T06:02:14;99710.66;;;8.26;66.88
11605;BME280;5858;43.076;25.626;2024-03-22T06:04:40;99719.34;;;8.54;65.74
11605;BME280;5858;43.076;25.626;2024-03-22T06:07:09;99693.59;;;8.79;64.03
11605;BME280;5858;43.076;25.626;2024-03-22T06:09:35;99768.19;;;9.71;61.76
11605;BME280;5858;43.076;25.626;2024-03-22T06:12:11;99773.69;;;9.94;60.77
11605;BME280;5858;43.076;25.626;2024-03-22T06:14:37;99718.53;;;10.09;58.64
11605;BME280;5858;43.076;25.626;2024-03-22T06:17:04;99750.91;;;10.47;57.20
11605;BME280;5858;43.076;25.626;2024-03-22T06:19:29;99791.63;;;11.13;54.57
11605;BME280;5858;43.076;25.626;2024-03-22T06:21:56;99751.44;;;10.26;55.70
11605;BME280;5858;43.076;25.626;2024-03-22T06:24:23;99707.63;;;10.35;54.74
11605;BME280;5858;43.076;25.626;2024-03-22T06:26:50;99778.31;;;11.27;54.18
11605;BME280;5858;43.076;25.626;2024-03-22T06:29:16;99747.34;;;11.02;52.98
11605;BME280;5858;43.076;25.626;2024-03-22T06:31:43;99783.03;;;11.25;52.49
11605;BME280;5858;43.076;25.626;2024-03-22T06:34:09;99793.38;;;11.28;52.58
11605;BME280;5858;43.076;25.626;2024-03-22T06:36:36;99723.41;;;11.00;52.58
11605;BME280;5858;43.076;25.626;2024-03-22T06:39:01;99806.22;;;11.41;52.33
11605;BME280;5858;43.076;25.626;2024-03-22T06:41:34;99808.91;;;11.41;51.62
11605;BME280;5858;43.076;25.626;2024-03-22T06:44:00;99760.31;;;10.82;52.10
11605;BME280;5858;43.076;25.626;2024-03-22T06:46:27;99806.91;;;11.35;52.56
11605;BME280;5858;43.076;25.626;2024-03-22T06:48:53;99739.84;;;10.97;51.60
11605;BME280;5858;43.076;25.626;2024-03-22T06:51:20;99815.28;;;11.40;48.55
11605;BME280;5858;43.076;25.626;2024-03-22T06:53:46;99759.28;;;10.91;49.05
11605;BME280;5858;43.076;25.626;2024-03-22T06:56:13;99807.66;;;10.82;48.39
11605;BME280;5858;43.076;25.626;2024-03-22T06:58:41;99808.78;;;10.95;48.39
11605;BME280;5858;43.076;25.626;2024-03-22T07:01:07;99737.38;;;10.49;48.20
11605;BME280;5858;43.076;25.626;2024-03-22T07:03:33;99809.16;;;10.84;47.09
11605;BME280;5858;43.076;25.626;2024-03-22T07:06:00;99817.69;;;10.80;48.54
11605;BME280;5858;43.076;25.626;2024-03-22T07:08:26;99815.94;;;10.56;47.93
11605;BME280;5858;43.076;25.626;2024-03-22T07:10:53;99773.16;;;10.15;47.57
11605;BME280;5858;43.076;25.626;2024-03-22T07:13:20;99819.81;;;10.21;49.78
11605;BME280;5858;43.076;25.626;2024-03-22T07:15:48;99820.13;;;10.09;50.34
11605;BME280;5858;43.076;25.626;2024-03-22T07:18:14;99819.13;;;10.10;50.01
11605;BME280;5858;43.076;25.626;2024-03-22T07:20:42;99803.94;;;9.95;48.66
11605;BME280;5858;43.076;25.626;2024-03-22T07:23:07;99832.13;;;9.49;49.86
11605;BME280;5858;43.076;25.626;2024-03-22T07:25:34;99791.22;;;9.48;50.52
11605;BME280;5858;43.076;25.626;2024-03-22T07:28:00;99714.97;;;8.95;52.12
11605;BME280;5858;43.076;25.626;2024-03-22T07:30:30;99787.88;;;9.70;51.79
11605;BME280;5858;43.076;25.626;2024-03-22T07:32:57;99824.66;;;10.01;49.45
11605;BME280;5858;43.076;25.626;2024-03-22T07:35:24;99820.94;;;9.77;49.54
11605;BME280;5858;43.076;25.626;2024-03-22T07:37:50;99833.78;;;9.58;48.97
11605;BME280;5858;43.076;25.626;2024-03-22T07:40:17;99815.72;;;9.43;49.68
11605;BME280;5858;43.076;25.626;2024-03-22T07:42:45;99804.66;;;9.22;49.84
11605;BME280;5858;43.076;25.626;2024-03-22T07:45:11;99823.94;;;9.58;50.52
11605;BME280;5858;43.076;25.626;2024-03-22T07:47:38;99798.75;;;9.69;50.18
11605;BME280;5858;43.076;25.626;2024-03-22T07:50:08;99820.28;;;9.84;49.39
11605;BME280;5858;43.076;25.626;2024-03-22T07:52:35;99798.59;;;9.95;49.75
11605;BME280;5858;43.076;25.626;2024-03-22T07:55:01;99812.97;;;10.02;47.43
11605;BME280;5858;43.076;25.626;2024-03-22T07:57:28;99817.97;;;10.05;46.80
11605;BME280;5858;43.076;25.626;2024-03-22T07:59:56;99820.31;;;10.32;44.79
11605;BME280;5858;43.076;25.626;2024-03-22T08:02:23;99730.06;;;9.21;45.72
11605;BME280;5858;43.076;25.626;2024-03-22T08:04:49;99810.44;;;9.76;46.19
11605;BME280;5858;43.076;25.626;2024-03-22T08:07:17;99819.94;;;9.70;44.84
11605;BME280;5858;43.076;25.626;2024-03-22T08:09:43;99807.06;;;9.50;44.83
11605;BME280;5858;43.076;25.626;2024-03-22T08:12:10;99797.34;;;9.40;45.86
11605;BME280;5858;43.076;25.626;2024-03-22T08:14:36;99795.31;;;9.26;46.90
11605;BME280;5858;43.076;25.626;2024-03-22T08:17:03;99810.75;;;9.49;46.79
11605;BME280;5858;43.076;25.626;2024-03-22T08:19:29;99778.31;;;9.43;46.30
11605;BME280;5858;43.076;25.626;2024-03-22T08:21:56;99798.84;;;9.35;46.11
11605;BME280;5858;43.076;25.626;2024-03-22T08:24:24;99804.91;;;9.53;45.97
11605;BME280;5858;43.076;25.626;2024-03-22T08:26:51;99800.41;;;9.54;45.54
11605;BME280;5858;43.076;25.626;2024-03-22T08:29:17;99815.59;;;9.86;45.79
11605;BME280;5858;43.076;25.626;2024-03-22T08:31:43;99815.78;;;9.92;44.13
11605;BME280;5858;43.076;25.626;2024-03-22T08:34:09;99817.13;;;9.88;44.29
11605;BME280;5858;43.076;25.626;2024-03-22T08:36:36;99750.59;;;9.44;41.19
11605;BME280;5858;43.076;25.626;2024-03-22T08:39:02;99791.72;;;9.84;41.35
11605;BME280;5858;43.076;25.626;2024-03-22T08:41:32;99810.44;;;10.08;42.45
11605;BME280;5858;43.076;25.626;2024-03-22T08:43:57;99791.22;;;9.81;42.76
11605;BME280;5858;43.076;25.626;2024-03-22T08:46:24;99786.03;;;9.79;42.08
11605;BME280;5858;43.076;25.626;2024-03-22T08:48:52;99787.38;;;9.83;41.86
11605;BME280;5858;43.076;25.626;2024-03-22T08:51:19;99804.41;;;9.90;42.53
11605;BME280;5858;43.076;25.626;2024-03-22T08:53:45;99822.81;;;10.26;42.22
11605;BME280;5858;43.076;25.626;2024-03-22T08:56:11;99816.31;;;9.96;41.91
11605;BME280;5858;43.076;25.626;2024-03-22T08:58:39;99813.63;;;10.04;41.55
11605;BME280;5858;43.076;25.626;2024-03-22T09:01:06;99806.44;;;9.96;42.08
11605;BME280;5858;43.076;25.626;2024-03-22T09:03:31;99800.59;;;10.09;41.67
11605;BME280;5858;43.076;25.626;2024-03-22T09:05:58;99742.63;;;9.53;39.95
11605;BME280;5858;43.076;25.626;2024-03-22T09:08:26;99734.78;;;9.75;40.24
11605;BME280;5858;43.076;25.626;2024-03-22T09:10:54;99722.41;;;9.58;40.06
11605;BME280;5858;43.076;25.626;2024-03-22T09:13:20;99752.97;;;9.88;40.42
11605;BME280;5858;43.076;25.626;2024-03-22T09:15:49;99792.91;;;10.30;39.94
11605;BME280;5858;43.076;25.626;2024-03-22T09:18:21;99735.09;;;10.05;39.02
11605;BME280;5858;43.076;25.626;2024-03-22T09:20:48;99666.66;;;9.55;39.53
11605;BME280;5858;43.076;25.626;2024-03-22T09:23:14;99789.03;;;10.33;39.90
11605;BME280;5858;43.076;25.626;2024-03-22T09:25:41;99761.97;;;10.28;39.49
11605;BME280;5858;43.076;25.626;2024-03-22T09:28:07;99679.13;;;10.03;40.75
11605;BME280;5858;43.076;25.626;2024-03-22T09:30:37;99783.81;;;10.64;41.94
11605;BME280;5858;43.076;25.626;2024-03-22T09:33:05;99725.38;;;10.20;41.46
11605;BME280;5858;43.076;25.626;2024-03-22T09:35:35;99779.44;;;10.71;42.19
11605;BME280;5858;43.076;25.626;2024-03-22T09:38:03;99726.22;;;10.21;42.52
11605;BME280;5858;43.076;25.626;2024-03-22T09:40:30;99786.88;;;10.45;42.76
11605;BME280;5858;43.076;25.626;2024-03-22T09:43:02;99764.16;;;10.40;43.83
11605;BME280;5858;43.076;25.626;2024-03-22T09:45:32;99762.31;;;10.41;44.13
11605;BME280;5858;43.076;25.626;2024-03-22T09:47:58;99749.28;;;10.30;45.05
11605;BME280;5858;43.076;25.626;2024-03-22T09:50:27;99699.00;;;10.01;44.04
11605;BME280;5858;43.076;25.626;2024-03-22T09:52:56;99702.47;;;10.26;43.38
11605;BME280;5858;43.076;25.626;2024-03-22T09:55:24;99762.75;;;10.61;43.47
11605;BME280;5858;43.076;25.626;2024-03-22T09:57:50;99771.88;;;10.75;43.19
11605;BME280;5858;43.076;25.626;2024-03-22T10:00:20;99761.78;;;10.85;43.48
11605;BME280;5858;43.076;25.626;2024-03-22T10:02:49;99765.88;;;10.72;42.79
11605;BME280;5858;43.076;25.626;2024-03-22T10:05:16;99691.41;;;10.45;43.35
11605;BME280;5858;43.076;25.626;2024-03-22T10:07:45;99705.31;;;10.24;44.15
11605;BME280;5858;43.076;25.626;2024-03-22T10:10:13;99719.53;;;10.25;45.14
11605;BME280;5858;43.076;25.626;2024-03-22T10:12:42;99758.22;;;10.61;44.33
11605;BME280;5858;43.076;25.626;2024-03-22T10:15:09;99751.00;;;10.70;44.56
11605;BME280;5858;43.076;25.626;2024-03-22T10:17:37;99753.34;;;10.65;44.40
11605;BME280;5858;43.076;25.626;2024-03-22T10:20:04;99759.81;;;10.79;44.60
11605;BME280;5858;43.076;25.626;2024-03-22T10:22:32;99662.38;;;10.09;44.82
11605;BME280;5858;43.076;25.626;2024-03-22T10:25:00;99757.16;;;10.79;44.51
11605;BME280;5858;43.076;25.626;2024-03-22T10:27:27;99760.25;;;10.98;44.83
11605;BME280;5858;43.076;25.626;2024-03-22T10:29:55;99560.50;;;9.96;44.18
11605;BME280;5858;43.076;25.626;2024-03-22T10:32:23;99743.00;;;11.01;44.36
11605;BME280;5858;43.076;25.626;2024-03-22T10:34:50;99705.94;;;10.82;44.19
11605;BME280;5858;43.076;25.626;2024-03-22T10:37:16;99552.78;;;10.09;44.69
11605;BME280;5858;43.076;25.626;2024-03-22T10:39:43;99640.56;;;10.76;45.22
11605;BME280;5858;43.076;25.626;2024-03-22T10:42:13;99728.63;;;11.71;44.31
11605;BME280;5858;43.076;25.626;2024-03-22T10:44:41;99691.88;;;11.11;44.04
11605;BME280;5858;43.076;25.626;2024-03-22T10:47:09;99636.53;;;11.03;44.29
11605;BME280;5858;43.076;25.626;2024-03-22T10:49:40;99679.56;;;11.24;44.15
11605;BME280;5858;43.076;25.626;2024-03-22T10:52:07;99658.31;;;11.23;43.81
11605;BME280;5858;43.076;25.626;2024-03-22T10:54:39;99693.34;;;11.44;43.28
11605;BME280;5858;43.076;25.626;2024-03-22T10:57:07;99724.69;;;11.81;42.62
11605;BME280;5858;43.076;25.626;2024-03-22T10:59:40;99664.75;;;11.37;42.48
11605;BME280;5858;43.076;25.626;2024-03-22T11:02:10;99683.75;;;11.50;42.33
11605;BME280;5858;43.076;25.626;2024-03-22T11:04:40;99683.66;;;11.81;41.69
11605;BME280;5858;43.076;25.626;2024-03-22T11:07:06;99613.22;;;11.12;42.15
11605;BME280;5858;43.076;25.626;2024-03-22T11:09:33;99695.75;;;11.54;42.15
11605;BME280;5858;43.076;25.626;2024-03-22T11:11:59;99642.41;;;11.44;42.99
11605;BME280;5858;43.076;25.626;2024-03-22T11:14:26;99642.53;;;11.51;42.58
11605;BME280;5858;43.076;25.626;2024-03-22T11:16:53;99631.41;;;11.39;43.13
11605;BME280;5858;43.076;25.626;2024-03-22T11:19:20;99621.53;;;11.40;42.25
11605;BME280;5858;43.076;25.626;2024-03-22T11:21:46;99602.13;;;11.38;42.26
11605;BME280;5858;43.076;25.626;2024-03-22T11:24:13;99678.09;;;11.82;42.24
11605;BME280;5858;43.076;25.626;2024-03-22T11:26:40;99623.50;;;11.60;43.55
11605;BME280;5858;43.076;25.626;2024-03-22T11:29:09;99676.03;;;12.22;44.10
11605;BME280;5858;43.076;25.626;2024-03-22T11:31:36;99668.81;;;12.52;43.31
11605;BME280;5858;43.076;25.626;2024-03-22T11:34:05;99662.16;;;12.33;41.91
11605;BME280;5858;43.076;25.626;2024-03-22T11:36:31;99531.91;;;11.57;41.69
11605;BME280;5858;43.076;25.626;2024-03-22T11:39:00;99635.06;;;12.13;41.77
11605;BME280;5858;43.076;25.626;2024-03-22T11:41:31;99557.06;;;11.71;41.84
11605;BME280;5858;43.076;25.626;2024-03-22T11:44:00;99640.13;;;12.38;41.98
11605;BME280;5858;43.076;25.626;2024-03-22T11:46:27;99635.59;;;12.09;41.90
11605;BME280;5858;43.076;25.626;2024-03-22T11:48:54;99627.16;;;12.26;41.59
11605;BME280;5858;43.076;25.626;2024-03-22T11:51:23;99648.66;;;12.41;41.28
11605;BME280;5858;43.076;25.626;2024-03-22T11:53:50;99635.41;;;12.40;41.30
11605;BME280;5858;43.076;25.626;2024-03-22T11:56:18;99553.47;;;12.08;42.39
11605;BME280;5858;43.076;25.626;2024-03-22T11:58:46;99598.88;;;12.39;42.00
11605;BME280;5858;43.076;25.626;2024-03-22T12:01:13;99626.53;;;12.75;43.45
11605;BME280;5858;43.076;25.626;2024-03-22T12:03:46;99626.06;;;12.86;42.09
11605;BME280;5858;43.076;25.626;2024-03-22T12:06:15;99595.19;;;12.61;41.80
11605;BME280;5858;43.076;25.626;2024-03-22T12:08:43;99626.94;;;12.57;40.69
11605;BME280;5858;43.076;25.626;2024-03-22T12:11:10;99623.19;;;12.73;41.13
11605;BME280;5858;43.076;25.626;2024-03-22T12:13:38;99624.09;;;12.59;41.59
11605;BME280;5858;43.076;25.626;2024-03-22T12:16:04;99614.25;;;12.30;41.97
11605;BME280;5858;43.076;25.626;2024-03-22T12:18:33;99612.75;;;12.13;41.77
11605;BME280;5858;43.076;25.626;2024-03-22T12:21:00;99614.78;;;12.25;41.91
11605;BME280;5858;43.076;25.626;2024-03-22T12:23:29;99623.44;;;12.57;42.01
11605;BME280;5858;43.076;25.626;2024-03-22T12:25:59;99632.25;;;12.87;41.41
11605;BME280;5858;43.076;25.626;2024-03-22T12:28:28;99603.88;;;12.99;40.92
11605;BME280;5858;43.076;25.626;2024-03-22T12:30:54;99615.06;;;13.24;41.08
11605;BME280;5858;43.076;25.626;2024-03-22T12:33:21;99561.34;;;12.81;40.81
11605;BME280;5858;43.076;25.626;2024-03-22T12:35:49;99518.50;;;12.52;40.69
11605;BME280;5858;43.076;25.626;2024-03-22T12:38:16;99601.69;;;12.88;40.96
11605;BME280;5858;43.076;25.626;2024-03-22T12:40:43;99531.03;;;12.66;40.68
11605;BME280;5858;43.076;25.626;2024-03-22T12:43:13;99604.00;;;12.91;41.25
11605;BME280;5858;43.076;25.626;2024-03-22T12:45:38;99583.84;;;12.80;41.72
11605;BME280;5858;43.076;25.626;2024-03-22T12:48:05;99597.19;;;12.74;41.72
11605;BME280;5858;43.076;25.626;2024-03-22T12:50:31;99589.00;;;12.60;42.02
11605;BME280;5858;43.076;25.626;2024-03-22T12:52:59;99523.16;;;12.43;41.58
11605;BME280;5858;43.076;25.626;2024-03-22T12:55:27;99602.16;;;12.77;41.45
11605;BME280;5858;43.076;25.626;2024-03-22T12:57:57;99511.78;;;12.41;41.44
11605;BME280;5858;43.076;25.626;2024-03-22T13:00:28;99599.13;;;13.01;41.45
11605;BME280;5858;43.076;25.626;2024-03-22T13:02:55;99527.81;;;12.35;41.65
11605;BME280;5858;43.076;25.626;2024-03-22T13:05:21;99556.44;;;12.85;41.24